Time;durP1;ratioP1;P1;durP2;ratioP2;P2;SDS_P1;SDS_P2;PMS_P1;PMS_P2;Temp;Humidity;BMP_temperature;BMP_pressure;BME280_temperature;BME280_humidity;BME280_pressure;Samples;Min_cycle;Max_cycle;Signal;HPM_P1;HPM_P2
2024/01/20 00:01:34;;;;;;;12.40;9.20;;;;;;;6.07;68.62;99468.84;104105;1261;60689;-63
2024/01/20 00:04:50;;;;;;;15.70;9.40;;;;;;;6.07;68.28;99482.56;104369;1259;72808;-61
2024/01/20 00:12:22;;;;;;;12.90;9.20;;;;;;;5.96;68.84;99470.15;104304;1260;74064;-61
2024/01/20 00:15:34;;;;;;;12.40;8.70;;;;;;;5.97;68.31;99478.63;104523;1257;60593;-62
2024/01/20 00:18:05;;;;;;;15.70;9.20;;;;;;;6.02;68.55;99486.69;104414;1263;60657;-61
2024/01/20 00:21:17;;;;;;;13.20;8.20;;;;;;;6.00;68.51;99490.40;104316;1262;73731;-61
2024/01/20 00:24:31;;;;;;;11.30;8.10;;;;;;;6.01;68.35;99491.09;107845;1254;69133;-63
2024/01/20 00:27:42;;;;;;;12.40;9.10;;;;;;;5.99;68.27;99494.77;107705;1256;72443;-63
2024/01/20 00:30:54;;;;;;;16.10;8.30;;;;;;;6.00;68.54;99495.63;107776;1256;61038;-63
2024/01/20 00:34:05;;;;;;;12.30;8.00;;;;;;;6.04;68.80;99491.35;107921;1256;59726;-64
2024/01/20 00:41:36;;;;;;;13.10;8.60;;;;;;;6.24;68.65;99487.70;107936;1255;69277;-63
2024/01/20 00:44:50;;;;;;;14.10;9.40;;;;;;;6.21;68.54;99494.34;107723;1256;72185;-63
2024/01/20 00:48:04;;;;;;;12.60;9.00;;;;;;;6.22;68.62;99505.83;107701;1256;60598;-64
2024/01/20 00:54:58;;;;;;;14.30;9.60;;;;;;;6.18;70.26;99502.98;107663;1256;72141;-63
2024/01/20 00:58:10;;;;;;;15.00;9.10;;;;;;;6.13;70.81;99507.46;107772;1256;69670;-64
2024/01/20 01:01:22;;;;;;;14.20;9.50;;;;;;;6.11;71.41;99505.27;107852;1255;72458;-63
2024/01/20 01:04:33;;;;;;;13.40;9.20;;;;;;;6.15;71.34;99505.34;107956;1257;59730;-63
2024/01/20 01:07:50;;;;;;;12.50;9.20;;;;;;;6.13;70.67;99512.33;107692;1254;60464;-63
2024/01/20 01:18:10;;;;;;;12.60;8.90;;;;;;;6.05;69.35;99514.30;107769;1256;72634;-63
2024/01/20 01:28:25;;;;;;;11.10;8.50;;;;;;;5.92;68.72;99515.63;107764;1256;72860;-62
2024/01/20 01:31:36;;;;;;;11.80;8.40;;;;;;;5.91;68.56;99518.98;107925;1255;69647;-62
2024/01/20 01:34:47;;;;;;;15.50;8.90;;;;;;;5.93;68.66;99527.08;107806;1256;72319;-63
2024/01/20 01:37:59;;;;;;;15.10;9.30;;;;;;;5.94;68.36;99528.11;107810;1256;60611;-62
2024/01/20 01:41:11;;;;;;;13.50;9.10;;;;;;;5.92;68.65;99525.20;107800;1255;59795;-62
2024/01/20 01:51:40;;;;;;;10.90;8.10;;;;;;;5.88;67.73;99550.35;107885;1255;72468;-62
2024/01/20 01:54:52;;;;;;;13.20;8.30;;;;;;;5.87;68.24;99550.73;107754;1257;60585;-63
2024/01/20 01:58:04;;;;;;;12.00;8.40;;;;;;;5.88;67.85;99543.58;107737;1257;59826;-63
2024/01/20 02:05:42;;;;;;;11.10;8.40;;;;;;;5.60;67.42;99545.48;108050;1255;69589;-63
2024/01/20 02:08:59;;;;;;;12.10;8.60;;;;;;;5.58;68.14;99556.31;107804;1256;72542;-62
2024/01/20 02:12:11;;;;;;;10.90;8.60;;;;;;;5.61;67.58;99557.09;107745;1256;60559;-62
2024/01/20 02:15:22;;;;;;;13.70;8.60;;;;;;;5.65;68.11;99565.88;107910;1255;59319;-62
2024/01/20 02:18:22;;;;;;;15.90;9.10;;;;;;;5.64;67.54;99566.77;107726;1256;72174;-62
2024/01/20 02:21:34;;;;;;;13.90;9.00;;;;;;;5.61;67.52;99572.05;107818;1256;69190;-62
2024/01/20 02:24:46;;;;;;;12.10;8.20;;;;;;;5.52;67.84;99581.66;107697;1256;72232;-61
2024/01/20 02:27:57;;;;;;;13.60;9.00;;;;;;;5.51;67.40;99584.83;107781;1257;60688;-61
2024/01/20 02:31:08;;;;;;;13.90;9.40;;;;;;;5.54;67.98;99592.40;108088;1253;60735;-61
2024/01/20 02:34:20;;;;;;;12.60;9.90;;;;;;;5.44;67.93;99595.41;108141;1253;72967;-61
2024/01/20 02:37:31;;;;;;;15.40;9.50;;;;;;;5.39;68.15;99593.95;108093;1253;69246;-62
2024/01/20 02:40:42;;;;;;;15.10;10.00;;;;;;;5.29;68.09;99591.05;108279;1253;72422;-61
2024/01/20 02:43:55;;;;;;;13.10;9.50;;;;;;;5.25;68.33;99602.23;108137;1253;60609;-62
2024/01/20 02:47:06;;;;;;;13.70;9.70;;;;;;;5.27;68.40;99609.16;108342;1253;60091;-61
2024/01/20 02:54:05;;;;;;;13.00;9.40;;;;;;;5.25;68.23;99619.63;108128;1253;68107;-61
2024/01/20 03:01:05;;;;;;;17.50;10.30;;;;;;;5.17;68.43;99639.61;108133;1254;60575;-61
2024/01/20 03:11:34;;;;;;;14.60;9.70;;;;;;;5.10;69.17;99657.14;108113;1252;69736;-61
2024/01/20 03:14:46;;;;;;;15.30;10.10;;;;;;;5.06;69.34;99658.09;108069;1253;72484;-62
2024/01/20 03:17:57;;;;;;;16.40;11.10;;;;;;;5.07;69.77;99656.99;108258;1253;60637;-61
2024/01/20 03:25:17;;;;;;;16.40;10.40;;;;;;;5.02;70.06;99662.67;108330;1253;72793;-68
2024/01/20 03:28:32;;;;;;;17.30;10.20;;;;;;;4.97;70.77;99664.69;108092;1255;69721;-62
2024/01/20 03:36:05;;;;;;;14.50;9.70;;;;;;;5.12;69.89;99662.45;108352;1253;60614;-62
2024/01/20 03:43:03;;;;;;;13.80;9.80;;;;;;;5.08;69.99;99671.77;108154;1253;72851;-62
2024/01/20 03:50:06;;;;;;;15.70;10.40;;;;;;;5.03;69.94;99681.41;108077;1253;72080;-61
2024/01/20 03:57:37;;;;;;;15.10;10.00;;;;;;;4.84;69.55;99697.23;108363;1252;59903;-59
2024/01/20 04:05:12;;;;;;;14.90;10.30;;;;;;;4.76;70.80;99697.56;108339;1253;69732;-62
2024/01/20 04:12:45;;;;;;;14.70;10.20;;;;;;;4.84;70.55;99714.61;108314;1253;59562;-62
2024/01/20 04:19:40;;;;;;;16.70;11.00;;;;;;;4.42;73.69;99728.35;108335;1253;73456;-61
2024/01/20 04:22:51;;;;;;;15.80;11.00;;;;;;;4.40;74.90;99727.85;108106;1253;69247;-61
2024/01/20 04:26:06;;;;;;;18.40;12.30;;;;;;;4.42;75.64;99729.04;108222;1254;72021;-61
2024/01/20 04:29:21;;;;;;;16.70;11.80;;;;;;;4.46;76.23;99733.48;107948;1253;61091;-62
2024/01/20 04:32:32;;;;;;;19.10;12.00;;;;;;;4.41;76.22;99737.73;108320;1253;60761;-62
2024/01/20 04:35:18;;;;;;;21.50;12.30;;;;;;;4.44;76.66;99747.23;108087;1253;73728;-61
2024/01/20 04:38:29;;;;;;;17.40;12.00;;;;;;;4.55;76.92;99756.95;108146;1252;69581;-62
2024/01/20 04:46:00;;;;;;;20.10;12.70;;;;;;;4.39;75.98;99771.78;108333;1253;60600;-61
2024/01/20 04:49:11;;;;;;;19.60;11.60;;;;;;;4.28;77.09;99771.61;108057;1256;60308;-61
2024/01/20 04:52:22;;;;;;;17.50;12.30;;;;;;;4.30;77.98;99769.31;108115;1254;74974;-61
2024/01/20 04:55:37;;;;;;;18.50;12.10;;;;;;;4.34;77.61;99773.44;108198;1253;69048;-61
2024/01/20 04:58:49;;;;;;;18.70;11.30;;;;;;;4.42;76.91;99778.14;108036;1253;71388;-62
2024/01/20 05:02:00;;;;;;;19.80;12.20;;;;;;;4.43;75.84;99785.97;108044;1254;61993;-61
2024/01/20 05:05:12;;;;;;;21.50;13.20;;;;;;;4.46;75.60;99786.25;107871;1254;60719;-61
2024/01/20 05:08:01;;;;;;;20.60;13.40;;;;;;;4.40;75.94;99787.23;108097;1253;73600;-62
2024/01/20 05:11:12;;;;;;;19.00;12.90;;;;;;;4.35;75.97;99788.52;108072;1253;69898;-62
2024/01/20 05:14:24;;;;;;;18.50;11.50;;;;;;;4.33;76.35;99797.04;108298;1254;72271;-61
2024/01/20 05:17:38;;;;;;;19.30;11.70;;;;;;;4.57;74.71;99802.58;108060;1253;59732;-61
2024/01/20 05:20:18;;;;;;;18.40;11.20;;;;;;;4.73;72.40;99805.80;107975;1253;59719;-61
2024/01/20 05:23:33;;;;;;;17.80;11.10;;;;;;;4.83;71.13;99810.33;108380;1253;74097;-61
2024/01/20 05:26:44;;;;;;;13.80;9.70;;;;;;;4.70;69.09;99812.09;108102;1253;69324;-61
2024/01/20 05:29:55;;;;;;;15.30;10.20;;;;;;;4.64;69.23;99821.22;108000;1253;71627;-61
2024/01/20 05:33:06;;;;;;;16.20;11.10;;;;;;;4.58;69.57;99828.44;108384;1253;61517;-61
2024/01/20 05:36:18;;;;;;;16.00;10.40;;;;;;;4.43;68.97;99832.12;108000;1254;58670;-61
2024/01/20 05:39:29;;;;;;;15.90;9.60;;;;;;;4.44;68.80;99834.89;108086;1253;72744;-61
2024/01/20 05:42:40;;;;;;;15.00;9.60;;;;;;;4.44;68.12;99838.73;108110;1253;69702;-61
2024/01/20 05:45:17;;;;;;;13.80;8.00;;;;;;;4.41;67.78;99843.80;108031;1254;71792;-61
2024/01/20 05:48:28;;;;;;;13.80;9.20;;;;;;;4.37;66.81;99847.50;107959;1253;60610;-61
2024/01/20 05:54:48;;;;;;;14.00;9.90;;;;;;;4.26;67.39;99859.10;101411;1289;616236;-60
2024/01/20 05:57:59;;;;;;;14.90;9.60;;;;;;;4.15;67.15;99860.63;103894;1267;59482;-60
2024/01/20 06:01:10;;;;;;;12.70;9.20;;;;;;;4.03;67.50;99869.11;104094;1268;60524;-60
2024/01/20 06:04:22;;;;;;;12.40;8.70;;;;;;;4.02;67.46;99880.92;104131;1262;72248;-65
2024/01/20 06:07:33;;;;;;;13.60;9.00;;;;;;;3.91;67.20;99890.58;100206;1262;5534259;-61
2024/01/20 06:10:06;;;;;;;16.00;9.70;;;;;;;3.86;67.07;99898.10;103776;1264;73133;-60
2024/01/20 06:17:06;;;;;;;12.20;8.90;;;;;;;3.88;67.70;99910.59;103939;1279;59741;-59
2024/01/20 06:23:53;;;;;;;14.50;9.40;;;;;;;3.79;67.69;99922.98;104516;1260;70253;-61
2024/01/20 06:27:04;;;;;;;14.20;9.90;;;;;;;3.73;67.78;99924.77;104120;1260;73236;-61
2024/01/20 06:29:31;;;;;;;15.00;9.70;;;;;;;3.69;67.52;99931.58;104058;1276;60676;-61
2024/01/20 06:32:41;;;;;;;15.70;9.80;;;;;;;3.70;67.93;99943.00;103990;1276;59652;-61
2024/01/20 06:35:17;;;;;;;15.40;9.60;;;;;;;3.71;68.15;99943.70;104620;1256;73234;-60
2024/01/20 06:42:10;;;;;;;17.50;9.30;;;;;;;3.66;67.40;99951.20;104883;1256;73453;-61
2024/01/20 06:52:02;;;;;;;16.10;9.90;;;;;;;3.67;67.26;99962.63;104460;1260;71655;-60
2024/01/20 07:03:37;;;;;;;12.50;8.70;;;;;;;3.79;66.66;99981.41;104248;1259;60900;-60
2024/01/20 07:10:18;;;;;;;18.10;10.80;;;;;;;3.75;66.27;99988.91;104700;1256;72990;-61
2024/01/20 07:12:51;;;;;;;19.00;11.60;;;;;;;3.82;66.88;99989.88;104211;1272;70478;-61
2024/01/20 07:16:03;;;;;;;15.60;9.60;;;;;;;3.94;66.65;99996.88;104408;1256;73873;-61
2024/01/20 07:19:14;;;;;;;13.90;9.90;;;;;;;4.02;66.47;100005.46;104651;1262;61183;-62
2024/01/20 07:22:20;;;;;;;18.30;10.30;;;;;;;4.06;65.12;100008.56;104978;1256;59771;-59
2024/01/20 07:24:54;;;;;;;18.00;10.20;;;;;;;4.09;65.49;100014.59;105014;1260;73259;-60
2024/01/20 07:27:27;;;;;;;17.30;10.30;;;;;;;4.13;65.64;100013.52;104686;1269;70627;-60
2024/01/20 07:30:37;;;;;;;14.50;9.50;;;;;;;4.19;65.35;100016.92;104789;1260;72232;-60
2024/01/20 07:33:49;;;;;;;13.50;8.70;;;;;;;4.14;65.63;100001.88;104979;1255;61070;-59
2024/01/20 07:36:54;;;;;;;14.80;8.80;;;;;;;4.27;65.24;100018.40;104668;1272;59877;-60
2024/01/20 07:39:22;;;;;;;12.70;8.90;;;;;;;4.35;64.67;100020.39;104764;1262;73287;-61
2024/01/20 07:41:55;;;;;;;15.50;9.40;;;;;;;4.41;64.62;100026.39;105046;1259;69910;-60
2024/01/20 07:44:51;;;;;;;13.90;9.60;;;;;;;4.47;64.85;100028.05;104515;1261;72543;-59
2024/01/20 07:48:03;;;;;;;13.10;9.80;;;;;;;4.56;63.96;100027.60;104884;1258;61678;-60
2024/01/20 07:50:30;;;;;;;16.30;9.40;;;;;;;4.49;63.14;100029.07;104340;1259;59650;-60
2024/01/20 07:53:32;;;;;;;14.80;9.40;;;;;;;4.43;62.94;100026.89;104497;1254;73463;-60
2024/01/20 07:56:09;;;;;;;13.40;8.30;;;;;;;4.36;62.98;100024.89;104934;1259;69914;-60
2024/01/20 07:58:42;;;;;;;13.20;8.40;;;;;;;4.38;62.92;100037.53;104983;1256;73061;-60
2024/01/20 08:04:45;;;;;;;11.50;8.00;;;;;;;4.48;62.83;100037.41;104910;1256;60253;-60
2024/01/20 08:07:24;;;;;;;13.70;8.60;;;;;;;4.58;62.75;100049.28;104625;1259;73314;-60
2024/01/20 08:10:20;;;;;;;12.80;8.90;;;;;;;4.58;62.41;100051.36;105004;1256;70145;-60
2024/01/20 08:13:37;;;;;;;15.90;9.00;;;;;;;4.59;62.77;100054.65;104180;1268;73596;-60
2024/01/20 08:16:55;;;;;;;13.50;8.20;;;;;;;4.72;61.90;100050.50;104461;1261;60961;-60
2024/01/20 08:19:29;;;;;;;13.30;8.10;;;;;;;4.75;61.25;100056.55;106548;1256;60236;-62
2024/01/20 08:21:59;;;;;;;14.70;8.50;;;;;;;4.80;60.54;100056.83;105824;1257;72057;-61
2024/01/20 08:24:33;;;;;;;14.60;9.00;;;;;;;4.73;61.44;100064.56;104883;1258;68184;-62
2024/01/20 08:26:59;;;;;;;11.90;8.40;;;;;;;4.72;61.89;100063.55;104755;1258;72565;-61
2024/01/20 08:29:33;;;;;;;10.60;8.50;;;;;;;4.69;61.61;100065.13;104100;1258;61051;-61
2024/01/20 08:32:34;;;;;;;12.60;8.60;;;;;;;4.70;61.58;100072.40;104641;1260;59562;-59
2024/01/20 08:35:09;;;;;;;11.60;8.90;;;;;;;4.68;61.48;100076.95;104778;1257;73509;-60
2024/01/20 08:38:20;;;;;;;10.00;8.30;;;;;;;4.69;61.01;100075.02;104934;1260;69248;-60
2024/01/20 08:41:31;;;;;;;12.40;7.80;;;;;;;4.66;61.04;100072.98;104909;1259;73115;-62
2024/01/20 08:44:32;;;;;;;10.20;7.40;;;;;;;4.72;61.13;100075.52;104403;1269;61143;-61
2024/01/20 08:47:05;;;;;;;11.20;8.10;;;;;;;4.69;60.99;100072.77;104558;1263;59736;-60
2024/01/20 08:50:19;;;;;;;13.10;8.60;;;;;;;4.70;61.17;100073.27;105118;1260;73209;-60
2024/01/20 08:53:33;;;;;;;13.30;8.60;;;;;;;4.71;60.79;100068.75;104552;1261;69209;-60
2024/01/20 09:00:35;;;;;;;11.10;7.50;;;;;;;4.87;60.05;100067.33;104498;1262;60736;-61
2024/01/20 09:03:08;;;;;;;11.80;7.10;;;;;;;4.93;59.10;100070.04;105276;1257;60308;-61
2024/01/20 09:05:41;;;;;;;13.90;6.80;;;;;;;4.92;58.59;100067.45;104589;1258;73916;-61
2024/01/20 09:15:32;;;;;;;6.40;4.90;;;;;;;4.91;56.70;100080.83;104855;1259;59858;-61
2024/01/20 09:18:34;;;;;;;7.20;4.90;;;;;;;4.86;55.79;100081.08;104620;1259;59771;-60
2024/01/20 09:25:31;;;;;;;8.10;5.60;;;;;;;4.82;55.01;100086.51;104662;1256;71371;-61
2024/01/20 09:32:35;;;;;;;8.20;5.00;;;;;;;4.81;55.44;100078.02;104539;1259;60815;-61
2024/01/20 09:35:22;;;;;;;8.70;5.30;;;;;;;4.90;55.54;100086.92;104541;1256;59840;-61
2024/01/20 09:38:20;;;;;;;7.40;5.20;;;;;;;4.95;55.45;100088.42;104801;1256;71599;-61
2024/01/20 09:45:19;;;;;;;9.40;5.90;;;;;;;5.02;54.18;100084.17;104730;1257;72964;-61
2024/01/20 09:48:33;;;;;;;8.40;5.50;;;;;;;4.98;53.57;100077.96;104675;1256;61021;-61
2024/01/20 09:51:07;;;;;;;11.10;5.50;;;;;;;4.89;53.29;100082.41;104276;1272;59925;-60
2024/01/20 09:53:43;;;;;;;7.00;4.70;;;;;;;4.84;52.99;100084.73;104546;1256;73340;-60
2024/01/20 10:00:21;;;;;;;6.30;4.70;;;;;;;4.79;52.74;100088.11;104524;1268;73022;-60
2024/01/20 10:03:32;;;;;;;8.10;4.50;;;;;;;4.79;52.76;100093.84;104665;1268;60123;-61
2024/01/20 10:06:05;;;;;;;13.60;5.90;;;;;;;4.79;52.75;100095.40;104669;1256;60011;-61
2024/01/20 10:08:49;;;;;;;10.20;6.00;;;;;;;4.73;52.74;100091.66;104431;1260;73351;-61
2024/01/20 10:11:22;;;;;;;6.50;4.80;;;;;;;4.73;52.47;100097.38;104679;1257;70887;-61
2024/01/20 10:14:33;;;;;;;6.20;4.30;;;;;;;4.73;52.86;100099.63;104361;1256;71269;-61
2024/01/20 10:21:27;;;;;;;7.50;4.50;;;;;;;4.60;52.28;100095.45;104833;1259;60686;-61
2024/01/20 10:24:37;;;;;;;5.30;4.00;;;;;;;4.62;52.06;100103.75;104610;1256;73475;-61
2024/01/20 10:27:52;;;;;;;7.40;4.70;;;;;;;4.69;52.78;100104.19;104587;1257;69605;-61
2024/01/20 10:36:34;;;;;;;6.10;4.80;;;;;;;3.88;55.58;100109.73;100919;1296;605704;-61
2024/01/20 10:39:47;;;;;;;5.60;4.20;;;;;;;4.42;52.82;100110.22;103815;1271;59804;-65
2024/01/20 10:42:59;;;;;;;8.10;4.60;;;;;;;4.45;53.25;100110.53;103718;1270;59531;-61
2024/01/20 10:46:11;;;;;;;6.40;4.70;;;;;;;4.49;52.89;100110.84;104188;1265;72079;-62
2024/01/20 10:48:48;;;;;;;4.90;4.10;;;;;;;4.47;52.63;100106.52;100200;1261;5544721;-61
2024/01/20 10:52:00;;;;;;;5.50;4.60;;;;;;;4.46;52.54;100104.10;103944;1267;61675;-62
2024/01/20 10:55:12;;;;;;;6.70;4.60;;;;;;;4.46;52.16;100100.98;104022;1266;60078;-61
2024/01/20 10:58:24;;;;;;;7.30;4.20;;;;;;;4.49;51.92;100098.16;104100;1263;70753;-61
2024/01/20 11:01:49;;;;;;;8.10;4.70;;;;;;;4.52;51.91;100096.23;104402;1265;70361;-62
2024/01/20 11:08:50;;;;;;;6.00;4.70;;;;;;;4.61;52.51;100092.30;104108;1263;59673;-63
2024/01/20 11:15:19;;;;;;;8.70;5.50;;;;;;;4.62;52.16;100100.63;104071;1264;72903;-61
2024/01/20 11:18:31;;;;;;;6.90;5.10;;;;;;;4.65;52.29;100104.59;103927;1263;70401;-61
2024/01/20 11:21:43;;;;;;;5.80;4.60;;;;;;;4.74;51.33;100094.42;104041;1277;72554;-61
2024/01/20 11:24:56;;;;;;;8.00;3.80;;;;;;;4.79;50.65;100096.96;104380;1265;60622;-61
2024/01/20 11:28:11;;;;;;;5.10;3.70;;;;;;;4.74;49.54;100099.98;103969;1267;59705;-58
2024/01/20 11:31:23;;;;;;;4.10;3.40;;;;;;;4.73;50.14;100108.15;104222;1266;73016;-64
2024/01/20 11:33:59;;;;;;;6.90;3.60;;;;;;;4.74;50.59;100115.09;104177;1262;69668;-61
2024/01/20 11:37:11;;;;;;;5.50;3.90;;;;;;;4.74;50.42;100111.44;104339;1265;73170;-61
2024/01/20 11:40:21;;;;;;;7.30;4.10;;;;;;;4.68;50.37;100102.83;104279;1269;59726;-62
2024/01/20 11:43:33;;;;;;;6.00;4.20;;;;;;;4.85;50.56;100112.89;103897;1266;60128;-60
2024/01/20 11:46:45;;;;;;;9.70;5.40;;;;;;;4.93;50.26;100113.64;103878;1274;73254;-60
2024/01/20 11:49:54;;;;;;;8.10;5.00;;;;;;;4.97;49.91;100114.48;103939;1263;69617;-60
2024/01/20 11:56:34;;;;;;;7.30;4.20;;;;;;;5.03;49.95;100096.48;104515;1263;59750;-60
2024/01/20 12:03:34;;;;;;;7.90;4.50;;;;;;;4.95;49.19;100099.90;104422;1258;73098;-59
2024/01/20 12:10:21;;;;;;;5.70;3.90;;;;;;;5.03;49.24;100095.28;104044;1262;72412;-60
2024/01/20 12:13:32;;;;;;;4.50;3.70;;;;;;;5.02;49.05;100096.16;104382;1263;59828;-59
2024/01/20 12:21:04;;;;;;;5.80;4.00;;;;;;;4.99;49.13;100096.89;104494;1262;76548;-60
2024/01/20 12:27:27;;;;;;;5.40;3.70;;;;;;;5.12;48.78;100096.20;104123;1273;72776;-61
2024/01/20 12:30:20;;;;;;;7.20;4.90;;;;;;;5.10;48.72;100091.88;104053;1260;59707;-60
2024/01/20 12:37:45;;;;;;;4.10;3.30;;;;;;;5.06;48.14;100090.55;104014;1258;72889;-59
2024/01/20 12:40:19;;;;;;;4.00;2.80;;;;;;;5.20;48.03;100087.05;104101;1265;71224;-59
2024/01/20 12:52:10;;;;;;;4.70;3.50;;;;;;;5.41;47.93;100100.15;103968;1257;61651;-60
2024/01/20 12:55:22;;;;;;;5.90;3.70;;;;;;;5.52;47.95;100098.95;104287;1266;73137;-59
2024/01/20 12:58:38;;;;;;;5.80;4.20;;;;;;;5.60;47.82;100102.30;104314;1263;70588;-59
2024/01/20 13:01:50;;;;;;;4.30;3.50;;;;;;;5.38;46.94;100107.14;104083;1262;72942;-59
2024/01/20 13:05:02;;;;;;;5.00;3.40;;;;;;;5.20;47.70;100104.45;104352;1265;59689;-58
2024/01/20 13:08:13;;;;;;;4.60;3.40;;;;;;;5.01;47.21;100107.98;104210;1263;59777;-59
2024/01/20 13:11:29;;;;;;;3.50;2.90;;;;;;;4.94;47.27;100111.55;104676;1262;73295;-59
2024/01/20 13:14:41;;;;;;;5.60;3.30;;;;;;;4.81;46.31;100117.08;104390;1263;70786;-59
2024/01/20 13:22:13;;;;;;;5.40;3.60;;;;;;;4.60;47.16;100097.36;104469;1262;59776;-59
2024/01/20 13:25:10;;;;;;;6.80;4.30;;;;;;;4.66;47.24;100112.05;104076;1260;59846;-59
2024/01/20 13:28:23;;;;;;;6.00;3.90;;;;;;;4.71;47.46;100116.17;104359;1265;71664;-59
2024/01/20 13:31:35;;;;;;;10.00;5.30;;;;;;;4.74;47.53;100115.43;104050;1263;69722;-59
2024/01/20 13:34:47;;;;;;;4.30;3.70;;;;;;;4.82;47.54;100112.20;104448;1259;73230;-59
2024/01/20 13:37:15;;;;;;;6.40;4.00;;;;;;;4.80;47.63;100112.58;104375;1260;59897;-58
2024/01/20 22:52:59;;;;;;;11.50;5.90;;;;;;;3.93;100.00;99887.17;100819;1292;603555;-60
2024/01/20 22:56:10;;;;;;;10.80;6.10;;;;;;;4.50;100.00;99889.48;104426;1262;60236;-61
2024/01/20 22:59:23;;;;;;;9.90;6.50;;;;;;;4.46;100.00;99889.38;104105;1259;59958;-60
2024/01/20 23:02:36;;;;;;;8.70;5.00;;;;;;;4.48;100.00;99892.46;104406;1256;71902;-60
2024/01/20 23:05:12;;;;;;;9.00;6.00;;;;;;;4.43;100.00;99894.27;100677;1253;5449698;-60
2024/01/20 23:11:50;;;;;;;10.50;5.20;;;;;;;4.68;100.00;99886.96;104400;1256;61001;-61
2024/01/20 23:15:08;;;;;;;9.70;6.40;;;;;;;4.71;100.00;99885.38;104725;1255;60137;-60
2024/01/20 23:18:20;;;;;;;8.10;5.90;;;;;;;4.67;100.00;99885.95;105299;1253;72098;-61
2024/01/20 23:21:31;;;;;;;10.80;5.80;;;;;;;8.07;100.00;99879.77;104921;1258;68058;-60
2024/01/20 23:24:43;;;;;;;9.70;5.60;;;;;;;6.74;100.00;99886.42;104772;1254;73432;-60
2024/01/20 23:27:55;;;;;;;10.00;5.10;;;;;;;6.25;100.00;99881.04;104802;1258;60610;-60
2024/01/20 23:31:07;;;;;;;10.50;5.80;;;;;;;6.55;100.00;99881.83;104355;1258;60113;-60
2024/01/20 23:34:23;;;;;;;8.40;5.20;;;;;;;10.52;93.27;99871.46;105642;1257;72821;-60
2024/01/20 23:37:34;;;;;;;7.80;4.60;;;;;;;10.49;80.15;99867.20;104851;1258;69320;-60
2024/01/20 23:40:46;;;;;;;9.70;5.70;;;;;;;9.94;75.77;99868.20;104424;1273;71759;-60
2024/01/20 23:44:01;;;;;;;8.30;5.50;;;;;;;9.37;77.63;99867.75;104537;1256;61241;-62
2024/01/20 23:46:54;;;;;;;9.00;5.60;;;;;;;9.11;72.61;99868.60;104322;1259;59785;-62
2024/01/20 23:53:14;;;;;;;9.40;5.10;;;;;;;8.77;72.77;99872.52;104810;1257;70065;-61
2024/01/20 23:56:26;;;;;;;9.50;5.30;;;;;;;8.56;81.41;99874.04;104318;1258;72516;-62
